sensor_id;sensor_type;location;lat;lon;timestamp;temperature;humidity
56725;DHT22;42608;52.776;6.968;2023-04-29T00:02:02;10.30;99.90
56725;DHT22;42608;52.776;6.968;2023-04-29T00:04:28;10.30;99.90
56725;DHT22;42608;52.776;6.968;2023-04-29T00:06:54;10.30;99.90
56725;DHT22;42608;52.776;6.968;2023-04-29T00:09:20;10.30;99.90
56725;DHT22;42608;52.776;6.968;2023-04-29T00:11:45;10.20;99.90
56725;DHT22;42608;52.776;6.968;2023-04-29T00:14:12;10.20;99.90
56725;DHT22;42608;52.776;6.968;2023-04-29T00:16:37;10.20;99.90
56725;DHT22;42608;52.776;6.968;2023-04-29T00:19:03;10.20;99.90
56725;DHT22;42608;52.776;6.968;2023-04-29T00:21:29;10.20;99.90
56725;DHT22;42608;52.776;6.968;2023-04-29T00:23:56;10.10;99.90
56725;DHT22;42608;52.776;6.968;2023-04-29T00:26:22;10.10;99.90
56725;DHT22;42608;52.776;6.968;2023-04-29T00:28:48;10.10;99.90
56725;DHT22;42608;52.776;6.968;2023-04-29T00:31:13;10.00;99.90
56725;DHT22;42608;52.776;6.968;2023-04-29T00:33:39;10.00;99.90
56725;DHT22;42608;52.776;6.968;2023-04-29T00:36:06;10.00;99.90
56725;DHT22;42608;52.776;6.968;2023-04-29T00:38:31;10.00;99.90
56725;DHT22;42608;52.776;6.968;2023-04-29T00:40:57;9.90;99.90
56725;DHT22;42608;52.776;6.968;2023-04-29T00:43:22;9.90;99.90
56725;DHT22;42608;52.776;6.968;2023-04-29T00:45:48;9.90;99.90
56725;DHT22;42608;52.776;6.968;2023-04-29T00:48:15;9.90;99.90
56725;DHT22;42608;52.776;6.968;2023-04-29T00:50:41;9.90;99.90
56725;DHT22;42608;52.776;6.968;2023-04-29T00:53:07;9.90;99.90
56725;DHT22;42608;52.776;6.968;2023-04-29T00:55:32;9.90;99.90
56725;DHT22;42608;52.776;6.968;2023-04-29T00:57:58;9.90;99.90
56725;DHT22;42608;52.776;6.968;2023-04-29T01:00:23;9.80;99.90
56725;DHT22;42608;52.776;6.968;2023-04-29T01:02:51;9.80;99.90
56725;DHT22;42608;52.776;6.968;2023-04-29T01:05:18;9.80;99.90
56725;DHT22;42608;52.776;6.968;2023-04-29T01:08:28;9.80;99.90
56725;DHT22;42608;52.776;6.968;2023-04-29T01:10:41;9.80;99.90
56725;DHT22;42608;52.776;6.968;2023-04-29T01:13:12;9.80;99.90
56725;DHT22;42608;52.776;6.968;2023-04-29T01:15:43;9.80;99.90
56725;DHT22;42608;52.776;6.968;2023-04-29T01:18:25;9.80;99.90
56725;DHT22;42608;52.776;6.968;2023-04-29T01:20:52;9.70;99.90
56725;DHT22;42608;52.776;6.968;2023-04-29T01:23:19;9.70;99.90
56725;DHT22;42608;52.776;6.968;2023-04-29T01:25:44;9.70;99.90
56725;DHT22;42608;52.776;6.968;2023-04-29T01:28:20;9.70;99.90
56725;DHT22;42608;52.776;6.968;2023-04-29T01:30:55;9.70;99.90
56725;DHT22;42608;52.776;6.968;2023-04-29T01:33:36;9.70;99.90
56725;DHT22;42608;52.776;6.968;2023-04-29T01:38:55;9.60;99.90
56725;DHT22;42608;52.776;6.968;2023-04-29T01:43:50;9.60;99.90
56725;DHT22;42608;52.776;6.968;2023-04-29T01:46:16;9.60;99.90
56725;DHT22;42608;52.776;6.968;2023-04-29T01:48:45;9.60;99.90
56725;DHT22;42608;52.776;6.968;2023-04-29T01:51:12;9.50;99.90
56725;DHT22;42608;52.776;6.968;2023-04-29T01:53:37;9.50;99.90
56725;DHT22;42608;52.776;6.968;2023-04-29T01:56:05;9.50;99.90
56725;DHT22;42608;52.776;6.968;2023-04-29T01:58:31;9.50;99.90
56725;DHT22;42608;52.776;6.968;2023-04-29T02:00:56;9.50;99.90
56725;DHT22;42608;52.776;6.968;2023-04-29T02:03:22;9.50;99.90
56725;DHT22;42608;52.776;6.968;2023-04-29T02:05:48;9.50;99.90
56725;DHT22;42608;52.776;6.968;2023-04-29T02:08:15;9.40;99.90
56725;DHT22;42608;52.776;6.968;2023-04-29T02:10:41;9.40;99.90
56725;DHT22;42608;52.776;6.968;2023-04-29T02:13:06;9.40;99.90
56725;DHT22;42608;52.776;6.968;2023-04-29T02:15:32;9.40;99.90
56725;DHT22;42608;52.776;6.968;2023-04-29T02:17:58;9.40;99.90
56725;DHT22;42608;52.776;6.968;2023-04-29T02:20:23;9.40;99.90
56725;DHT22;42608;52.776;6.968;2023-04-29T02:22:49;9.40;99.90
56725;DHT22;42608;52.776;6.968;2023-04-29T02:25:14;9.40;99.90
56725;DHT22;42608;52.776;6.968;2023-04-29T02:27:40;9.40;99.90
56725;DHT22;42608;52.776;6.968;2023-04-29T02:30:06;9.40;99.90
56725;DHT22;42608;52.776;6.968;2023-04-29T02:32:31;9.40;99.90
56725;DHT22;42608;52.776;6.968;2023-04-29T02:34:57;9.40;99.90
56725;DHT22;42608;52.776;6.968;2023-04-29T02:37:29;9.40;99.90
56725;DHT22;42608;52.776;6.968;2023-04-29T02:39:57;9.40;99.90
56725;DHT22;42608;52.776;6.968;2023-04-29T02:42:25;9.40;99.90
56725;DHT22;42608;52.776;6.968;2023-04-29T02:44:52;9.40;99.90
56725;DHT22;42608;52.776;6.968;2023-04-29T02:47:18;9.40;99.90
56725;DHT22;42608;52.776;6.968;2023-04-29T02:49:43;9.40;99.90
56725;DHT22;42608;52.776;6.968;2023-04-29T02:52:09;9.40;99.90
56725;DHT22;42608;52.776;6.968;2023-04-29T02:54:34;9.30;99.90
56725;DHT22;42608;52.776;6.968;2023-04-29T02:57:00;9.40;99.90
56725;DHT22;42608;52.776;6.968;2023-04-29T02:59:26;9.40;99.90
56725;DHT22;42608;52.776;6.968;2023-04-29T03:01:52;9.40;99.90
56725;DHT22;42608;52.776;6.968;2023-04-29T03:04:19;9.40;99.90
56725;DHT22;42608;52.776;6.968;2023-04-29T03:06:44;9.40;99.90
56725;DHT22;42608;52.776;6.968;2023-04-29T03:09:16;9.30;99.90
56725;DHT22;42608;52.776;6.968;2023-04-29T03:11:41;9.30;99.90
56725;DHT22;42608;52.776;6.968;2023-04-29T03:14:07;9.30;99.90
56725;DHT22;42608;52.776;6.968;2023-04-29T03:16:32;9.30;99.90
56725;DHT22;42608;52.776;6.968;2023-04-29T03:18:58;9.30;99.90
56725;DHT22;42608;52.776;6.968;2023-04-29T03:21:24;9.30;99.90
56725;DHT22;42608;52.776;6.968;2023-04-29T03:23:51;9.30;99.90
56725;DHT22;42608;52.776;6.968;2023-04-29T03:26:17;9.30;99.90
56725;DHT22;42608;52.776;6.968;2023-04-29T03:28:43;9.30;99.90
56725;DHT22;42608;52.776;6.968;2023-04-29T03:31:11;9.20;99.90
56725;DHT22;42608;52.776;6.968;2023-04-29T03:33:45;9.30;99.90
56725;DHT22;42608;52.776;6.968;2023-04-29T03:36:10;9.20;99.90
56725;DHT22;42608;52.776;6.968;2023-04-29T03:38:36;9.20;99.90
56725;DHT22;42608;52.776;6.968;2023-04-29T03:41:01;9.20;99.90
56725;DHT22;42608;52.776;6.968;2023-04-29T03:43:27;9.20;99.90
56725;DHT22;42608;52.776;6.968;2023-04-29T03:45:53;9.20;99.90
56725;DHT22;42608;52.776;6.968;2023-04-29T03:48:18;9.20;99.90
56725;DHT22;42608;52.776;6.968;2023-04-29T03:50:48;9.20;99.90
56725;DHT22;42608;52.776;6.968;2023-04-29T03:53:14;9.20;99.90
56725;DHT22;42608;52.776;6.968;2023-04-29T03:55:43;9.20;99.90
56725;DHT22;42608;52.776;6.968;2023-04-29T03:58:09;9.20;99.90
56725;DHT22;42608;52.776;6.968;2023-04-29T04:00:37;9.20;99.90
56725;DHT22;42608;52.776;6.968;2023-04-29T04:03:02;9.20;99.90
56725;DHT22;42608;52.776;6.968;2023-04-29T04:05:28;9.20;99.90
56725;DHT22;42608;52.776;6.968;2023-04-29T04:07:54;9.20;99.90
56725;DHT22;42608;52.776;6.968;2023-04-29T04:10:19;9.20;99.90
56725;DHT22;42608;52.776;6.968;2023-04-29T04:12:45;9.10;99.90
56725;DHT22;42608;52.776;6.968;2023-04-29T04:15:12;9.10;99.90
56725;DHT22;42608;52.776;6.968;2023-04-29T04:17:37;9.10;99.90
56725;DHT22;42608;52.776;6.968;2023-04-29T04:20:03;9.10;99.90
56725;DHT22;42608;52.776;6.968;2023-04-29T04:22:29;9.10;99.90
56725;DHT22;42608;52.776;6.968;2023-04-29T04:24:55;9.00;99.90
56725;DHT22;42608;52.776;6.968;2023-04-29T04:27:20;9.10;99.90
56725;DHT22;42608;52.776;6.968;2023-04-29T04:29:46;9.10;99.90
56725;DHT22;42608;52.776;6.968;2023-04-29T04:32:12;9.00;99.90
56725;DHT22;42608;52.776;6.968;2023-04-29T04:34:37;9.00;99.90
56725;DHT22;42608;52.776;6.968;2023-04-29T04:37:06;9.00;99.90
56725;DHT22;42608;52.776;6.968;2023-04-29T04:39:32;8.90;99.90
56725;DHT22;42608;52.776;6.968;2023-04-29T04:41:58;9.00;99.90
56725;DHT22;42608;52.776;6.968;2023-04-29T04:44:23;8.90;99.90
56725;DHT22;42608;52.776;6.968;2023-04-29T04:46:49;8.90;99.90
56725;DHT22;42608;52.776;6.968;2023-04-29T04:49:15;8.90;99.90
56725;DHT22;42608;52.776;6.968;2023-04-29T04:51:43;8.90;99.90
56725;DHT22;42608;52.776;6.968;2023-04-29T04:54:10;8.90;99.90
56725;DHT22;42608;52.776;6.968;2023-04-29T04:56:36;8.90;99.90
56725;DHT22;42608;52.776;6.968;2023-04-29T04:59:02;8.90;99.90
56725;DHT22;42608;52.776;6.968;2023-04-29T05:01:28;8.90;99.90
56725;DHT22;42608;52.776;6.968;2023-04-29T05:03:53;8.90;99.90
56725;DHT22;42608;52.776;6.968;2023-04-29T05:06:19;8.90;99.90
56725;DHT22;42608;52.776;6.968;2023-04-29T05:08:45;8.90;99.90
56725;DHT22;42608;52.776;6.968;2023-04-29T05:11:17;8.90;99.90
56725;DHT22;42608;52.776;6.968;2023-04-29T05:13:43;8.90;99.90
56725;DHT22;42608;52.776;6.968;2023-04-29T05:16:09;8.90;99.90
56725;DHT22;42608;52.776;6.968;2023-04-29T05:18:34;8.80;99.90
56725;DHT22;42608;52.776;6.968;2023-04-29T05:21:03;8.90;99.90
56725;DHT22;42608;52.776;6.968;2023-04-29T05:23:30;8.90;99.90
56725;DHT22;42608;52.776;6.968;2023-04-29T05:25:56;8.80;99.90
56725;DHT22;42608;52.776;6.968;2023-04-29T05:28:21;8.90;99.90
56725;DHT22;42608;52.776;6.968;2023-04-29T05:30:49;8.90;99.90
56725;DHT22;42608;52.776;6.968;2023-04-29T05:33:15;8.90;99.90
56725;DHT22;42608;52.776;6.968;2023-04-29T05:35:40;8.90;99.90
56725;DHT22;42608;52.776;6.968;2023-04-29T05:38:06;8.90;99.90
56725;DHT22;42608;52.776;6.968;2023-04-29T05:40:32;8.90;99.90
56725;DHT22;42608;52.776;6.968;2023-04-29T05:42:57;8.90;99.90
56725;DHT22;42608;52.776;6.968;2023-04-29T05:45:23;8.90;99.90
56725;DHT22;42608;52.776;6.968;2023-04-29T05:47:48;8.90;99.90
56725;DHT22;42608;52.776;6.968;2023-04-29T05:50:14;8.90;99.90
56725;DHT22;42608;52.776;6.968;2023-04-29T05:52:40;8.90;99.90
56725;DHT22;42608;52.776;6.968;2023-04-29T05:55:06;8.90;99.90
56725;DHT22;42608;52.776;6.968;2023-04-29T05:57:32;8.90;99.90
56725;DHT22;42608;52.776;6.968;2023-04-29T05:59:58;9.00;99.90
56725;DHT22;42608;52.776;6.968;2023-04-29T06:02:24;9.00;99.90
56725;DHT22;42608;52.776;6.968;2023-04-29T06:04:50;9.00;99.90
56725;DHT22;42608;52.776;6.968;2023-04-29T06:07:16;9.00;99.90
56725;DHT22;42608;52.776;6.968;2023-04-29T06:09:42;9.00;99.90
56725;DHT22;42608;52.776;6.968;2023-04-29T06:12:08;9.00;99.90
56725;DHT22;42608;52.776;6.968;2023-04-29T06:14:34;9.00;99.90
56725;DHT22;42608;52.776;6.968;2023-04-29T06:16:59;9.10;99.90
56725;DHT22;42608;52.776;6.968;2023-04-29T06:19:25;9.10;99.90
56725;DHT22;42608;52.776;6.968;2023-04-29T06:21:50;9.10;99.90
56725;DHT22;42608;52.776;6.968;2023-04-29T06:24:16;9.10;99.90
56725;DHT22;42608;52.776;6.968;2023-04-29T06:26:41;9.20;99.90
56725;DHT22;42608;52.776;6.968;2023-04-29T06:29:08;9.20;99.90
56725;DHT22;42608;52.776;6.968;2023-04-29T06:31:33;9.20;99.90
56725;DHT22;42608;52.776;6.968;2023-04-29T06:33:59;9.20;99.90
56725;DHT22;42608;52.776;6.968;2023-04-29T06:36:24;9.20;99.90
56725;DHT22;42608;52.776;6.968;2023-04-29T06:38:51;9.30;99.90
56725;DHT22;42608;52.776;6.968;2023-04-29T06:41:17;9.30;99.90
56725;DHT22;42608;52.776;6.968;2023-04-29T06:43:42;9.30;99.90
56725;DHT22;42608;52.776;6.968;2023-04-29T06:46:11;9.40;99.90
56725;DHT22;42608;52.776;6.968;2023-04-29T06:48:37;9.40;99.90
56725;DHT22;42608;52.776;6.968;2023-04-29T06:51:03;9.40;99.90
56725;DHT22;42608;52.776;6.968;2023-04-29T06:53:28;9.50;99.90
56725;DHT22;42608;52.776;6.968;2023-04-29T06:55:57;9.50;99.90
56725;DHT22;42608;52.776;6.968;2023-04-29T06:58:22;9.50;99.90
56725;DHT22;42608;52.776;6.968;2023-04-29T07:00:49;9.50;99.90
56725;DHT22;42608;52.776;6.968;2023-04-29T07:03:17;9.60;99.90
56725;DHT22;42608;52.776;6.968;2023-04-29T07:05:43;9.60;99.90
56725;DHT22;42608;52.776;6.968;2023-04-29T07:08:12;9.60;99.90
56725;DHT22;42608;52.776;6.968;2023-04-29T07:10:40;9.70;99.90
56725;DHT22;42608;52.776;6.968;2023-04-29T07:13:06;9.80;99.90
56725;DHT22;42608;52.776;6.968;2023-04-29T07:15:36;9.80;99.90
56725;DHT22;42608;52.776;6.968;2023-04-29T07:18:23;9.90;99.90
56725;DHT22;42608;52.776;6.968;2023-04-29T07:20:49;9.90;99.90
56725;DHT22;42608;52.776;6.968;2023-04-29T07:23:17;10.00;99.90
56725;DHT22;42608;52.776;6.968;2023-04-29T07:25:45;10.00;99.90
56725;DHT22;42608;52.776;6.968;2023-04-29T07:28:14;10.10;99.90
56725;DHT22;42608;52.776;6.968;2023-04-29T07:30:39;10.10;99.90
56725;DHT22;42608;52.776;6.968;2023-04-29T07:33:06;10.20;99.90
56725;DHT22;42608;52.776;6.968;2023-04-29T07:35:31;10.20;99.90
56725;DHT22;42608;52.776;6.968;2023-04-29T07:37:57;10.20;99.90
56725;DHT22;42608;52.776;6.968;2023-04-29T07:40:23;10.30;99.90
56725;DHT22;42608;52.776;6.968;2023-04-29T07:42:48;10.30;99.90
56725;DHT22;42608;52.776;6.968;2023-04-29T07:45:14;10.30;99.90
56725;DHT22;42608;52.776;6.968;2023-04-29T07:47:39;10.40;99.90
56725;DHT22;42608;52.776;6.968;2023-04-29T07:50:07;10.40;99.90
56725;DHT22;42608;52.776;6.968;2023-04-29T07:52:33;10.50;99.90
56725;DHT22;42608;52.776;6.968;2023-04-29T07:54:59;10.60;99.90
56725;DHT22;42608;52.776;6.968;2023-04-29T07:57:25;10.60;99.90
56725;DHT22;42608;52.776;6.968;2023-04-29T07:59:52;10.60;99.90
56725;DHT22;42608;52.776;6.968;2023-04-29T08:02:21;10.70;99.90
56725;DHT22;42608;52.776;6.968;2023-04-29T08:04:47;10.80;99.90
56725;DHT22;42608;52.776;6.968;2023-04-29T08:07:13;10.90;99.90
56725;DHT22;42608;52.776;6.968;2023-04-29T08:09:38;10.90;99.90
56725;DHT22;42608;52.776;6.968;2023-04-29T08:12:04;10.90;99.90
56725;DHT22;42608;52.776;6.968;2023-04-29T08:14:29;11.10;99.90
56725;DHT22;42608;52.776;6.968;2023-04-29T08:16:55;11.10;99.90
56725;DHT22;42608;52.776;6.968;2023-04-29T08:19:23;11.30;99.90
56725;DHT22;42608;52.776;6.968;2023-04-29T08:21:49;11.30;99.90
56725;DHT22;42608;52.776;6.968;2023-04-29T08:24:16;11.30;99.90
56725;DHT22;42608;52.776;6.968;2023-04-29T08:26:46;11.40;99.90
56725;DHT22;42608;52.776;6.968;2023-04-29T08:29:12;11.30;99.90
56725;DHT22;42608;52.776;6.968;2023-04-29T08:31:40;11.40;99.90
56725;DHT22;42608;52.776;6.968;2023-04-29T08:34:06;11.40;99.90
56725;DHT22;42608;52.776;6.968;2023-04-29T08:36:32;11.40;99.90
56725;DHT22;42608;52.776;6.968;2023-04-29T08:38:58;11.40;99.90
56725;DHT22;42608;52.776;6.968;2023-04-29T08:41:23;11.50;99.90
56725;DHT22;42608;52.776;6.968;2023-04-29T08:43:49;11.60;99.90
56725;DHT22;42608;52.776;6.968;2023-04-29T08:46:15;11.60;99.90
56725;DHT22;42608;52.776;6.968;2023-04-29T08:48:42;11.70;99.90
56725;DHT22;42608;52.776;6.968;2023-04-29T08:51:10;11.70;99.90
56725;DHT22;42608;52.776;6.968;2023-04-29T08:53:36;11.80;99.90
56725;DHT22;42608;52.776;6.968;2023-04-29T08:56:02;11.80;99.90
56725;DHT22;42608;52.776;6.968;2023-04-29T08:58:32;11.80;99.90
56725;DHT22;42608;52.776;6.968;2023-04-29T09:00:58;11.90;99.90
56725;DHT22;42608;52.776;6.968;2023-04-29T09:03:34;12.00;99.90
56725;DHT22;42608;52.776;6.968;2023-04-29T09:06:01;12.00;99.90
56725;DHT22;42608;52.776;6.968;2023-04-29T09:08:27;12.00;99.90
56725;DHT22;42608;52.776;6.968;2023-04-29T09:10:54;12.00;99.90
56725;DHT22;42608;52.776;6.968;2023-04-29T09:13:24;12.10;99.90
56725;DHT22;42608;52.776;6.968;2023-04-29T09:15:50;12.00;99.90
56725;DHT22;42608;52.776;6.968;2023-04-29T09:21:12;12.10;99.90
56725;DHT22;42608;52.776;6.968;2023-04-29T09:23:38;12.10;99.90
56725;DHT22;42608;52.776;6.968;2023-04-29T09:26:03;12.20;99.90
56725;DHT22;42608;52.776;6.968;2023-04-29T09:28:29;12.30;99.90
56725;DHT22;42608;52.776;6.968;2023-04-29T09:30:54;12.40;99.90
56725;DHT22;42608;52.776;6.968;2023-04-29T09:33:20;12.40;99.90
56725;DHT22;42608;52.776;6.968;2023-04-29T09:35:45;12.40;99.90
56725;DHT22;42608;52.776;6.968;2023-04-29T09:38:13;12.50;99.90
56725;DHT22;42608;52.776;6.968;2023-04-29T09:40:40;12.60;99.90
56725;DHT22;42608;52.776;6.968;2023-04-29T09:43:10;12.60;99.90
56725;DHT22;42608;52.776;6.968;2023-04-29T09:45:38;12.60;99.90
56725;DHT22;42608;52.776;6.968;2023-04-29T09:48:06;12.50;99.90
56725;DHT22;42608;52.776;6.968;2023-04-29T09:50:33;12.50;99.90
56725;DHT22;42608;52.776;6.968;2023-04-29T09:52:59;12.60;99.90
56725;DHT22;42608;52.776;6.968;2023-04-29T09:55:25;12.70;99.90
56725;DHT22;42608;52.776;6.968;2023-04-29T09:57:56;12.90;99.90
56725;DHT22;42608;52.776;6.968;2023-04-29T10:00:22;12.90;99.90
56725;DHT22;42608;52.776;6.968;2023-04-29T10:02:48;13.00;99.90
56725;DHT22;42608;52.776;6.968;2023-04-29T10:05:15;13.10;99.90
56725;DHT22;42608;52.776;6.968;2023-04-29T10:07:41;13.10;99.90
56725;DHT22;42608;52.776;6.968;2023-04-29T10:10:07;13.10;99.90
56725;DHT22;42608;52.776;6.968;2023-04-29T10:12:33;13.00;99.90
56725;DHT22;42608;52.776;6.968;2023-04-29T10:15:09;13.10;99.90
56725;DHT22;42608;52.776;6.968;2023-04-29T10:20:09;12.90;99.90
56725;DHT22;42608;52.776;6.968;2023-04-29T10:22:45;12.80;99.90
56725;DHT22;42608;52.776;6.968;2023-04-29T10:25:11;12.70;99.90
56725;DHT22;42608;52.776;6.968;2023-04-29T10:27:40;12.70;99.90
56725;DHT22;42608;52.776;6.968;2023-04-29T10:30:08;12.70;99.90
56725;DHT22;42608;52.776;6.968;2023-04-29T10:32:41;12.70;99.90
56725;DHT22;42608;52.776;6.968;2023-04-29T10:35:08;12.80;99.90
56725;DHT22;42608;52.776;6.968;2023-04-29T10:37:38;13.00;99.90
56725;DHT22;42608;52.776;6.968;2023-04-29T10:42:42;13.30;99.90
56725;DHT22;42608;52.776;6.968;2023-04-29T10:50:31;13.50;99.90
56725;DHT22;42608;52.776;6.968;2023-04-29T10:52:57;13.50;99.90
56725;DHT22;42608;52.776;6.968;2023-04-29T10:55:23;13.50;99.90
56725;DHT22;42608;52.776;6.968;2023-04-29T10:57:51;13.40;99.90
56725;DHT22;42608;52.776;6.968;2023-04-29T11:00:21;13.40;99.90
56725;DHT22;42608;52.776;6.968;2023-04-29T11:02:47;13.50;99.90
56725;DHT22;42608;52.776;6.968;2023-04-29T11:05:13;13.60;99.90
56725;DHT22;42608;52.776;6.968;2023-04-29T11:07:38;13.60;99.90
56725;DHT22;42608;52.776;6.968;2023-04-29T11:10:05;13.70;99.90
56725;DHT22;42608;52.776;6.968;2023-04-29T11:12:31;13.80;99.90
56725;DHT22;42608;52.776;6.968;2023-04-29T11:14:57;13.80;99.90
56725;DHT22;42608;52.776;6.968;2023-04-29T11:17:35;13.80;99.90
56725;DHT22;42608;52.776;6.968;2023-04-29T11:20:08;13.70;99.90
56725;DHT22;42608;52.776;6.968;2023-04-29T11:22:34;13.60;99.90
56725;DHT22;42608;52.776;6.968;2023-04-29T11:25:00;13.60;99.90
56725;DHT22;42608;52.776;6.968;2023-04-29T11:27:36;13.60;99.90
56725;DHT22;42608;52.776;6.968;2023-04-29T11:30:03;13.70;99.90
56725;DHT22;42608;52.776;6.968;2023-04-29T11:32:33;13.70;99.90
56725;DHT22;42608;52.776;6.968;2023-04-29T11:37:40;13.60;99.90
56725;DHT22;42608;52.776;6.968;2023-04-29T11:40:06;13.70;99.90
56725;DHT22;42608;52.776;6.968;2023-04-29T11:42:39;13.70;99.90
56725;DHT22;42608;52.776;6.968;2023-04-29T11:45:05;13.70;99.90
56725;DHT22;42608;52.776;6.968;2023-04-29T11:47:31;13.80;99.90
56725;DHT22;42608;52.776;6.968;2023-04-29T11:50:06;13.80;99.90
56725;DHT22;42608;52.776;6.968;2023-04-29T11:52:35;13.90;99.90
56725;DHT22;42608;52.776;6.968;2023-04-29T11:55:02;13.80;99.90
56725;DHT22;42608;52.776;6.968;2023-04-29T11:57:27;14.00;99.90
56725;DHT22;42608;52.776;6.968;2023-04-29T11:59:53;14.10;99.90
56725;DHT22;42608;52.776;6.968;2023-04-29T12:02:27;14.00;99.90
56725;DHT22;42608;52.776;6.968;2023-04-29T12:04:53;13.90;99.90
56725;DHT22;42608;52.776;6.968;2023-04-29T12:07:19;13.90;99.90
56725;DHT22;42608;52.776;6.968;2023-04-29T12:09:44;14.00;99.90
56725;DHT22;42608;52.776;6.968;2023-04-29T12:12:11;14.00;99.90
56725;DHT22;42608;52.776;6.968;2023-04-29T12:14:36;14.00;99.90
56725;DHT22;42608;52.776;6.968;2023-04-29T12:17:02;14.00;99.90
56725;DHT22;42608;52.776;6.968;2023-04-29T12:19:28;14.10;99.90
56725;DHT22;42608;52.776;6.968;2023-04-29T12:21:57;14.20;99.90
56725;DHT22;42608;52.776;6.968;2023-04-29T12:24:23;14.40;99.90
56725;DHT22;42608;52.776;6.968;2023-04-29T12:26:51;14.40;99.90
56725;DHT22;42608;52.776;6.968;2023-04-29T12:29:22;14.40;99.90
56725;DHT22;42608;52.776;6.968;2023-04-29T12:31:48;14.50;99.90
56725;DHT22;42608;52.776;6.968;2023-04-29T12:34:13;14.60;99.90
56725;DHT22;42608;52.776;6.968;2023-04-29T12:36:42;14.70;99.90
56725;DHT22;42608;52.776;6.968;2023-04-29T12:39:09;14.60;99.90
56725;DHT22;42608;52.776;6.968;2023-04-29T12:41:35;14.70;99.90
56725;DHT22;42608;52.776;6.968;2023-04-29T12:44:03;14.70;99.90
56725;DHT22;42608;52.776;6.968;2023-04-29T12:46:33;14.80;99.90
56725;DHT22;42608;52.776;6.968;2023-04-29T12:49:02;14.90;99.90
56725;DHT22;42608;52.776;6.968;2023-04-29T12:51:29;15.00;99.90
56725;DHT22;42608;52.776;6.968;2023-04-29T12:53:57;15.10;99.90
56725;DHT22;42608;52.776;6.968;2023-04-29T12:56:23;15.30;99.90
56725;DHT22;42608;52.776;6.968;2023-04-29T12:58:48;15.40;99.90
56725;DHT22;42608;52.776;6.968;2023-04-29T13:01:14;15.40;99.90
56725;DHT22;42608;52.776;6.968;2023-04-29T13:03:40;15.20;99.90
56725;DHT22;42608;52.776;6.968;2023-04-29T13:06:06;15.10;99.90
56725;DHT22;42608;52.776;6.968;2023-04-29T13:08:36;15.10;99.90
56725;DHT22;42608;52.776;6.968;2023-04-29T13:11:02;15.30;99.90
56725;DHT22;42608;52.776;6.968;2023-04-29T13:13:27;15.30;99.90
56725;DHT22;42608;52.776;6.968;2023-04-29T13:15:53;15.30;99.90
56725;DHT22;42608;52.776;6.968;2023-04-29T13:18:18;15.30;99.90
56725;DHT22;42608;52.776;6.968;2023-04-29T13:20:44;15.40;99.90
56725;DHT22;42608;52.776;6.968;2023-04-29T13:23:10;15.60;99.90
56725;DHT22;42608;52.776;6.968;2023-04-29T13:25:36;15.60;99.90
56725;DHT22;42608;52.776;6.968;2023-04-29T13:28:02;15.70;99.90
56725;DHT22;42608;52.776;6.968;2023-04-29T13:30:32;15.60;99.90
56725;DHT22;42608;52.776;6.968;2023-04-29T13:32:57;15.80;99.90
56725;DHT22;42608;52.776;6.968;2023-04-29T13:35:23;15.70;99.90
56725;DHT22;42608;52.776;6.968;2023-04-29T13:37:48;15.80;99.90
56725;DHT22;42608;52.776;6.968;2023-04-29T13:40:14;15.80;99.90
56725;DHT22;42608;52.776;6.968;2023-04-29T13:42:40;15.70;99.90
56725;DHT22;42608;52.776;6.968;2023-04-29T13:45:11;15.80;99.90
56725;DHT22;42608;52.776;6.968;2023-04-29T13:47:37;15.80;99.90
56725;DHT22;42608;52.776;6.968;2023-04-29T13:50:03;15.90;99.90
56725;DHT22;42608;52.776;6.968;2023-04-29T13:52:29;16.00;99.70
56725;DHT22;42608;52.776;6.968;2023-04-29T13:54:55;15.90;99.10
56725;DHT22;42608;52.776;6.968;2023-04-29T13:57:21;16.00;99.30
56725;DHT22;42608;52.776;6.968;2023-04-29T13:59:49;16.00;99.90
56725;DHT22;42608;52.776;6.968;2023-04-29T14:02:17;16.00;99.90
56725;DHT22;42608;52.776;6.968;2023-04-29T14:04:42;16.00;99.90
56725;DHT22;42608;52.776;6.968;2023-04-29T14:07:08;15.90;99.90
56725;DHT22;42608;52.776;6.968;2023-04-29T14:09:33;15.90;99.90
56725;DHT22;42608;52.776;6.968;2023-04-29T14:11:59;15.90;99.90
56725;DHT22;42608;52.776;6.968;2023-04-29T14:14:25;15.90;99.90
56725;DHT22;42608;52.776;6.968;2023-04-29T14:16:50;15.90;99.90
56725;DHT22;42608;52.776;6.968;2023-04-29T14:19:16;15.90;98.90
56725;DHT22;42608;52.776;6.968;2023-04-29T14:21:41;15.80;99.00
56725;DHT22;42608;52.776;6.968;2023-04-29T14:24:07;15.70;99.60
56725;DHT22;42608;52.776;6.968;2023-04-29T14:26:32;15.60;98.80
56725;DHT22;42608;52.776;6.968;2023-04-29T14:28:58;15.70;99.90
56725;DHT22;42608;52.776;6.968;2023-04-29T14:31:27;15.70;99.80
56725;DHT22;42608;52.776;6.968;2023-04-29T14:33:57;15.60;99.90
56725;DHT22;42608;52.776;6.968;2023-04-29T14:36:22;15.60;99.90
56725;DHT22;42608;52.776;6.968;2023-04-29T14:38:48;15.60;99.80
56725;DHT22;42608;52.776;6.968;2023-04-29T14:41:14;15.60;99.90
56725;DHT22;42608;52.776;6.968;2023-04-29T14:43:40;15.70;99.90
56725;DHT22;42608;52.776;6.968;2023-04-29T14:46:07;15.70;98.80
56725;DHT22;42608;52.776;6.968;2023-04-29T14:48:33;15.70;98.70
56725;DHT22;42608;52.776;6.968;2023-04-29T14:50:58;15.80;99.20
56725;DHT22;42608;52.776;6.968;2023-04-29T14:53:27;15.80;96.00
56725;DHT22;42608;52.776;6.968;2023-04-29T14:55:52;15.70;97.20
56725;DHT22;42608;52.776;6.968;2023-04-29T14:58:18;15.60;96.50
56725;DHT22;42608;52.776;6.968;2023-04-29T15:00:43;15.60;97.90
56725;DHT22;42608;52.776;6.968;2023-04-29T15:03:09;15.60;97.20
56725;DHT22;42608;52.776;6.968;2023-04-29T15:05:34;15.60;97.10
56725;DHT22;42608;52.776;6.968;2023-04-29T15:08:00;15.50;96.70
56725;DHT22;42608;52.776;6.968;2023-04-29T15:10:26;15.50;96.60
56725;DHT22;42608;52.776;6.968;2023-04-29T15:12:52;15.50;97.90
56725;DHT22;42608;52.776;6.968;2023-04-29T15:15:18;15.50;99.20
56725;DHT22;42608;52.776;6.968;2023-04-29T15:17:44;15.50;99.90
56725;DHT22;42608;52.776;6.968;2023-04-29T15:20:09;15.50;99.70
56725;DHT22;42608;52.776;6.968;2023-04-29T15:22:35;15.40;99.90
56725;DHT22;42608;52.776;6.968;2023-04-29T15:25:01;15.50;99.90
56725;DHT22;42608;52.776;6.968;2023-04-29T15:27:27;15.50;99.90
56725;DHT22;42608;52.776;6.968;2023-04-29T15:29:52;15.40;99.90
56725;DHT22;42608;52.776;6.968;2023-04-29T15:32:24;15.40;99.90
56725;DHT22;42608;52.776;6.968;2023-04-29T15:35:02;15.40;99.90
56725;DHT22;42608;52.776;6.968;2023-04-29T15:37:28;15.30;99.90
56725;DHT22;42608;52.776;6.968;2023-04-29T15:39:55;15.30;99.90
56725;DHT22;42608;52.776;6.968;2023-04-29T15:42:22;15.20;99.90
56725;DHT22;42608;52.776;6.968;2023-04-29T15:44:48;15.20;99.90
56725;DHT22;42608;52.776;6.968;2023-04-29T15:47:13;15.00;99.90
56725;DHT22;42608;52.776;6.968;2023-04-29T15:49:40;14.90;99.90
56725;DHT22;42608;52.776;6.968;2023-04-29T15:52:06;14.90;99.90
56725;DHT22;42608;52.776;6.968;2023-04-29T15:54:31;14.90;99.90
56725;DHT22;42608;52.776;6.968;2023-04-29T15:56:57;14.80;99.90